Time;durP1;ratioP1;P1;durP2;ratioP2;P2;SDS_P1;SDS_P2;PMS_P1;PMS_P2;Temp;Humidity;BMP_temperature;BMP_pressure;BME280_temperature;BME280_humidity;BME280_pressure;Samples;Min_cycle;Max_cycle;Signal;HPM_P1;HPM_P2
2022/10/23 00:08:16;;;;;;;4.43;3.23;;;;;;;13.05;79.61;100699.00;31470376;28;20048;-76
2022/10/23 00:23:18;;;;;;;5.03;3.10;;;;;;;13.02;80.26;100684.25;31474495;28;20125;-74
2022/10/23 00:38:20;;;;;;;4.17;2.60;;;;;;;13.09;79.78;100662.31;31467065;28;20139;-76
2022/10/23 00:53:22;;;;;;;3.40;2.07;;;;;;;13.15;80.55;100644.31;31463203;28;20049;-75
2022/10/23 01:08:49;;;;;;;3.87;2.37;;;;;;;13.16;79.32;100610.41;31452954;28;20386;-75
2022/10/23 01:24:07;;;;;;;9.13;2.93;;;;;;;13.31;81.19;100605.41;31444158;28;20482;-75
2022/10/23 01:39:23;;;;;;;4.97;3.17;;;;;;;13.26;83.12;100584.84;31434316;28;20060;-74
2022/10/23 01:54:30;;;;;;;4.83;3.30;;;;;;;13.27;81.72;100570.03;31447812;28;20102;-74
2022/10/23 02:09:32;;;;;;;4.33;3.53;;;;;;;13.15;82.14;100551.63;31442558;28;20391;-75
2022/10/23 02:24:52;;;;;;;6.07;3.00;;;;;;;13.32;80.93;100534.09;31449704;28;20086;-76
2022/10/23 02:39:54;;;;;;;7.07;3.00;;;;;;;13.42;81.55;100526.09;31434109;28;20056;-75
2022/10/23 02:55:11;;;;;;;4.40;2.80;;;;;;;13.43;81.17;100524.91;31433303;28;20052;-74
2022/10/23 03:10:13;;;;;;;3.80;2.23;;;;;;;13.56;80.55;100517.53;31438017;28;20102;-75
2022/10/23 03:25:15;;;;;;;4.27;2.67;;;;;;;13.76;79.25;100496.34;31452830;28;20127;-75
2022/10/23 03:40:17;;;;;;;4.10;2.10;;;;;;;13.79;79.13;100495.50;31465368;28;20126;-75
2022/10/23 03:55:19;;;;;;;2.60;1.70;;;;;;;13.73;79.92;100464.47;31469113;28;20097;-75
2022/10/23 04:10:21;;;;;;;3.20;1.73;;;;;;;13.68;80.83;100435.00;31471595;28;20482;-75
2022/10/23 04:25:23;;;;;;;3.40;2.00;;;;;;;13.69;80.86;100428.34;31456840;28;20113;-75
2022/10/23 04:40:24;;;;;;;2.87;1.90;;;;;;;13.71;80.17;100412.28;31451705;28;20040;-76
2022/10/23 04:55:26;;;;;;;2.40;1.80;;;;;;;13.94;79.79;100403.84;31459078;28;20048;-74
2022/10/23 05:10:29;;;;;;;3.43;1.70;;;;;;;14.11;79.67;100401.06;31464120;28;20102;-75
2022/10/23 05:25:31;;;;;;;4.27;2.17;;;;;;;14.23;79.42;100405.75;31448403;28;20059;-74
2022/10/23 05:40:33;;;;;;;4.77;2.20;;;;;;;14.37;79.45;100401.84;31452618;28;20433;-75
2022/10/23 05:55:35;;;;;;;2.53;2.13;;;;;;;14.53;79.33;100402.53;31438716;28;20055;-77
2022/10/23 06:10:36;;;;;;;3.23;1.83;;;;;;;14.47;79.62;100409.72;31442643;28;20460;-76
2022/10/23 06:25:38;;;;;;;4.57;1.93;;;;;;;14.64;78.85;100399.47;31474710;28;20060;-76
2022/10/23 06:40:40;;;;;;;4.77;1.60;;;;;;;14.66;79.01;100403.25;31458587;28;20053;-78
2022/10/23 06:55:50;;;;;;;3.83;1.70;;;;;;;14.52;81.92;100414.66;31469244;28;20498;-76
2022/10/23 07:10:56;;;;;;;5.27;2.20;;;;;;;14.37;87.17;100399.88;31476131;28;20490;-79
2022/10/23 07:26:06;;;;;;;2.77;1.70;;;;;;;14.12;91.84;100375.28;31507988;28;20125;-78
2022/10/23 07:41:09;;;;;;;3.50;1.73;;;;;;;14.09;92.62;100348.84;31509008;28;20117;-75
2022/10/23 07:56:23;;;;;;;2.67;1.80;;;;;;;14.24;94.25;100322.63;31481970;28;20132;-75
2022/10/23 08:11:26;;;;;;;3.73;1.73;;;;;;;14.26;89.85;100307.34;31467447;28;20071;-75
2022/10/23 08:26:29;;;;;;;3.03;1.47;;;;;;;14.13;86.54;100270.34;31468740;28;20428;-74
2022/10/23 08:41:46;;;;;;;2.47;1.27;;;;;;;14.31;86.76;100262.34;31472566;28;20114;-75
2022/10/23 08:56:57;;;;;;;4.20;1.53;;;;;;;14.41;84.66;100250.31;31469218;28;20552;-75
2022/10/23 09:12:09;;;;;;;4.23;1.43;;;;;;;14.53;89.43;100243.31;31475103;28;20055;-75
2022/10/23 09:27:15;;;;;;;4.90;2.00;;;;;;;14.85;94.36;100218.41;31468497;28;20079;-74
2022/10/23 09:42:23;;;;;;;5.30;2.87;;;;;;;15.04;96.77;100193.91;31459187;28;20494;-76
2022/10/23 09:57:41;;;;;;;6.63;3.43;;;;;;;15.05;98.37;100177.06;31491283;28;20048;-76
2022/10/23 10:12:56;;;;;;;5.37;3.10;;;;;;;15.00;99.86;100142.09;31487342;28;20048;-75
2022/10/23 10:27:59;;;;;;;8.43;3.13;;;;;;;15.00;100.00;100117.50;31480939;28;20048;-76
2022/10/23 10:43:07;;;;;;;4.77;2.20;;;;;;;15.09;98.92;100084.00;31426853;28;20433;-77
2022/10/23 10:58:15;;;;;;;3.57;2.30;;;;;;;14.90;97.86;100050.31;31433431;28;20060;-76
2022/10/23 11:13:24;;;;;;;3.60;1.97;;;;;;;14.64;97.71;100012.25;31470455;28;20118;-76
2022/10/23 11:28:35;;;;;;;6.13;2.57;;;;;;;14.33;97.08;100012.22;31438650;28;20045;-77
2022/10/23 11:44:23;;;;;;;4.57;1.67;;;;;;;14.06;96.23;99989.44;31440041;28;20063;-76
2022/10/23 11:59:36;;;;;;;6.40;2.47;;;;;;;13.76;97.58;99974.50;31444579;28;20067;-76
2022/10/23 12:14:47;;;;;;;4.70;2.90;;;;;;;13.61;98.77;99950.44;31452843;28;20056;-76
2022/10/23 12:30:02;;;;;;;5.13;2.60;;;;;;;13.68;100.00;99946.72;31447294;28;20135;-77
2022/10/23 14:09:14;;;;;;;5.43;2.43;;;;;;;10.11;100.00;99701.09;31686744;27;20349;-78
2022/10/23 14:24:16;;;;;;;7.30;2.93;;;;;;;9.89;100.00;99673.72;31685223;28;20549;-75
2022/10/23 14:39:18;;;;;;;6.87;3.80;;;;;;;9.98;100.00;99665.72;31673099;28;20484;-76
2022/10/23 14:54:20;;;;;;;8.10;4.53;;;;;;;10.28;100.00;99640.22;31724143;28;20043;-76
2022/10/23 15:09:24;;;;;;;13.53;5.30;;;;;;;10.58;100.00;99639.81;31614909;28;20052;-77
2022/10/23 15:24:26;;;;;;;17.40;5.80;;;;;;;10.71;100.00;99634.41;31656284;28;20454;-77
2022/10/23 15:39:34;;;;;;;19.93;7.13;;;;;;;10.75;100.00;99620.75;31671241;28;20048;-77
2022/10/23 15:54:36;;;;;;;15.27;6.53;;;;;;;10.83;100.00;99613.94;31646684;28;20476;-76
2022/10/23 16:09:38;;;;;;;31.23;8.60;;;;;;;11.20;100.00;99615.94;31667396;28;20044;-75
2022/10/23 16:24:40;;;;;;;23.00;7.97;;;;;;;11.40;100.00;99626.59;31683913;28;20047;-76
2022/10/23 16:39:42;;;;;;;14.40;7.27;;;;;;;11.56;100.00;99663.78;31667247;28;20052;-75
2022/10/23 16:54:44;;;;;;;7.03;4.23;;;;;;;11.61;100.00;99693.13;31629857;28;20097;-74
2022/10/23 17:09:46;;;;;;;8.43;3.77;;;;;;;11.53;100.00;99714.34;31634585;28;20105;-74
2022/10/23 17:24:48;;;;;;;7.30;3.73;;;;;;;11.32;100.00;99735.94;31645138;28;20056;-76
2022/10/23 17:39:54;;;;;;;9.93;4.40;;;;;;;11.33;100.00;99734.75;31652756;28;20063;-75
2022/10/23 17:55:00;;;;;;;17.83;6.90;;;;;;;11.38;100.00;99745.06;31622830;28;20141;-76
2022/10/23 18:10:03;;;;;;;18.50;8.33;;;;;;;11.37;100.00;99748.97;31616304;28;20052;-74
2022/10/23 18:25:05;;;;;;;111.57;47.70;;;;;;;11.35;100.00;99762.22;31651749;28;20508;-75
2022/10/23 18:40:08;;;;;;;37.23;14.80;;;;;;;11.25;100.00;99786.56;31654917;28;20044;-76
2022/10/23 18:55:11;;;;;;;56.87;19.53;;;;;;;11.09;100.00;99804.88;31656546;28;20491;-75
2022/10/23 19:10:16;;;;;;;60.83;21.53;;;;;;;10.87;100.00;99804.66;31657401;28;20057;-77
2022/10/23 19:25:32;;;;;;;65.67;18.77;;;;;;;10.87;100.00;99823.66;31650763;28;20055;-77
2022/10/23 19:40:33;;;;;;;80.33;21.10;;;;;;;10.92;100.00;99829.34;31679722;28;20063;-75
2022/10/23 19:55:35;;;;;;;79.27;22.00;;;;;;;10.96;100.00;99842.84;31633850;28;20122;-75
2022/10/23 20:10:42;;;;;;;84.43;23.57;;;;;;;11.03;100.00;99856.25;31642213;28;20802;-75
2022/10/23 20:25:44;;;;;;;87.50;23.67;;;;;;;11.09;100.00;99846.41;31641441;28;20044;-75
2022/10/23 20:40:46;;;;;;;78.67;22.80;;;;;;;11.11;100.00;99857.56;31649977;28;20390;-75
2022/10/23 20:55:48;;;;;;;56.27;18.33;;;;;;;11.13;100.00;99857.91;31633699;28;20056;-74
2022/10/23 21:10:50;;;;;;;44.30;15.17;;;;;;;11.19;100.00;99858.16;31639940;28;20382;-75
2022/10/23 21:25:52;;;;;;;36.67;13.03;;;;;;;11.22;100.00;99855.34;31655013;28;20059;-76
2022/10/23 21:40:54;;;;;;;26.47;12.67;;;;;;;11.19;100.00;99866.31;31637083;28;20044;-74
2022/10/23 21:56:04;;;;;;;39.93;15.90;;;;;;;10.98;100.00;99902.16;31612777;28;20049;-76
2022/10/23 22:11:05;;;;;;;31.47;13.43;;;;;;;10.82;100.00;99921.94;31630645;28;20125;-75
2022/10/23 22:26:29;;;;;;;29.63;13.37;;;;;;;10.73;100.00;99946.97;31637822;28;20060;-76
2022/10/23 22:41:32;;;;;;;29.07;12.70;;;;;;;10.66;100.00;99978.94;31647408;28;20048;-76
2022/10/23 22:56:34;;;;;;;23.50;10.63;;;;;;;10.59;100.00;100015.91;31666913;28;20059;-75
2022/10/23 23:11:36;;;;;;;20.23;10.83;;;;;;;10.57;100.00;100042.72;31681882;28;20051;-75
2022/10/23 23:26:52;;;;;;;16.67;7.57;;;;;;;10.39;100.00;100077.59;31662736;28;20079;-75
2022/10/23 23:41:54;;;;;;;17.57;8.00;;;;;;;10.28;100.00;100093.28;31680994;28;20492;-75
2022/10/23 23:56:58;;;;;;;17.60;8.63;;;;;;;10.20;100.00;100105.44;31681974;28;20336;-75
